Main page
METAR-TAF:

METAR-TAF

Airports :

George Best Belfast City Airport

Belfast City, Northern Ireland

latitude: 54-36N, longitude: 005-53W, elevation: 5 m

Current weather observation

The report was made 39 minutes ago, at 22:20 UTC
Wind 14 kt from the East
Temperature 7°C
Humidity 81%
Pressure 998 hPa
Visibility 10 km or more

METAR: EGAC 212220Z AUTO 10014KT 9999 BKN020/// OVC027/// 07/04 Q0998

Time: 22:59 (22:59 UTC)

Forecast

The report was made 6 hours and 3 minutes ago, at 16:56 UTC
Forecast valid from 21 at 18 UTC to 21 at 22 UTC
Wind 12 kt from the East
Visibility 10 km or more
Broken clouds at a height of 2000 ft
Probability 30% :
Temporary
from 21 at 18 UTC to 21 at 22 UTC
Wind 15 kt from the East with gusts up to 25 kt
Visibility: 8000 m
Broken clouds at a height of 1400 ft
light rain, drizzle

TAF: EGAC 211656Z 2118/2122 10012KT 9999 BKN020 PROB30 TEMPO 2118/2122 10015G25KT 8000 -RADZ BKN014

Weather observations and forecasts of more than 4000 airports (METAR and TAF reports).

The available stations are represented by yellow and red dots on the map.

Hover mouse over dot to see the name of the station.

Then click to see weather observations and forecasts.

To change the map : click on the green buttons with a black cross to zoom in, on the green button with a dash to zoom out, or on the green arrows for adjacent maps.


METAR-TAF: